Time;durP1;ratioP1;P1;durP2;ratioP2;P2;SDS_P1;SDS_P2;PMS_P1;PMS_P2;Temp;Humidity;BMP_temperature;BMP_pressure;BME280_temperature;BME280_humidity;BME280_pressure;Samples;Min_cycle;Max_cycle;Signal;HPM_P1;HPM_P2
2021/07/02 00:02:14;;;;;;;93.10;40.72;;;;;;;15.95;100.00;101346.25;5084123;28;20126;-77
2021/07/02 00:04:50;;;;;;;81.63;40.65;;;;;;;15.91;100.00;101344.94;5101103;27;20136;-78
2021/07/02 00:07:25;;;;;;;83.60;41.00;;;;;;;15.86;100.00;101350.72;5123253;27;1183314;-79
2021/07/02 00:10:05;;;;;;;87.85;41.15;;;;;;;15.91;100.00;101342.28;5103614;27;20349;-78
2021/07/02 00:12:41;;;;;;;89.30;40.05;;;;;;;15.85;100.00;101345.59;5106980;27;21263;-78
2021/07/02 00:15:18;;;;;;;82.25;40.72;;;;;;;15.78;100.00;101345.44;5101675;27;20140;-77
2021/07/02 00:17:55;;;;;;;82.65;40.42;;;;;;;15.77;100.00;101339.31;5062105;28;20134;-78
2021/07/02 00:20:31;;;;;;;83.97;39.03;;;;;;;15.77;100.00;101343.78;5068449;27;20138;-77
2021/07/02 00:23:08;;;;;;;67.75;37.05;;;;;;;15.74;100.00;101342.28;5058261;28;20146;-77
2021/07/02 00:25:44;;;;;;;72.07;37.00;;;;;;;15.73;100.00;101334.50;5107532;27;20144;-79
2021/07/02 00:28:22;;;;;;;73.68;37.17;;;;;;;15.74;100.00;101334.34;5120039;27;20131;-77
2021/07/02 00:30:59;;;;;;;69.47;36.15;;;;;;;15.73;100.00;101334.50;5097042;27;20751;-77
2021/07/02 00:33:36;;;;;;;70.05;37.30;;;;;;;15.71;100.00;101329.38;5064955;27;20510;-77
2021/07/02 00:36:12;;;;;;;67.80;36.13;;;;;;;15.74;100.00;101339.63;5104916;27;20135;-78
2021/07/02 00:38:49;;;;;;;70.88;38.22;;;;;;;15.76;100.00;101337.69;5103741;27;20140;-76
2021/07/02 00:41:26;;;;;;;76.88;39.50;;;;;;;15.75;100.00;101340.50;5067669;28;20130;-79
2021/07/02 00:44:02;;;;;;;73.65;39.20;;;;;;;15.75;100.00;101337.84;5059002;28;20737;-79
2021/07/02 00:46:39;;;;;;;81.15;40.78;;;;;;;15.71;100.00;101334.66;5067039;28;20146;-78
2021/07/02 00:49:15;;;;;;;90.68;42.47;;;;;;;15.65;100.00;101330.06;5057431;28;20142;-80
2021/07/02 00:51:52;;;;;;;79.22;42.40;;;;;;;15.59;100.00;101338.63;5098327;27;20134;-78
2021/07/02 00:54:29;;;;;;;79.40;40.38;;;;;;;15.60;100.00;101329.72;5102666;27;20125;-80
2021/07/02 00:57:07;;;;;;;74.63;40.00;;;;;;;15.65;100.00;101343.28;5101256;27;20143;-77
2021/07/02 00:59:43;;;;;;;75.78;38.92;;;;;;;15.62;100.00;101338.31;5059029;28;20379;-76
2021/07/02 01:02:23;;;;;;;73.55;40.10;;;;;;;15.62;100.00;101343.59;5076947;28;21177;-79
2021/07/02 01:05:00;;;;;;;74.78;38.90;;;;;;;15.71;100.00;101339.97;5131458;27;20139;-78
2021/07/02 01:07:40;;;;;;;70.13;37.72;;;;;;;15.72;100.00;101348.72;5044703;28;20388;-78
2021/07/02 01:10:17;;;;;;;67.13;35.05;;;;;;;15.69;100.00;101341.94;5058768;28;20400;-77
2021/07/02 01:12:54;;;;;;;73.10;36.65;;;;;;;15.68;100.00;101347.41;5051500;27;20386;-78
2021/07/02 01:25:56;;;;;;;50.50;31.10;;;;;;;15.69;100.00;101343.75;5131338;27;20388;-80
2021/07/02 01:28:32;;;;;;;57.65;32.60;;;;;;;15.71;100.00;101344.44;5081384;27;20394;-76
2021/07/02 01:41:33;;;;;;;46.25;26.95;;;;;;;15.61;100.00;101349.84;5106918;27;20384;-79
2021/07/02 01:44:08;;;;;;;54.33;28.38;;;;;;;15.58;100.00;101352.84;5059867;27;1190325;-82
2021/07/02 01:46:44;;;;;;;52.10;27.60;;;;;;;15.60;100.00;101363.25;5058999;28;20388;-76
2021/07/02 01:49:22;;;;;;;44.45;26.33;;;;;;;15.60;100.00;101366.72;5133883;27;20700;-77
2021/07/02 01:51:59;;;;;;;49.47;26.65;;;;;;;15.57;100.00;101369.69;5101269;27;20140;-79
2021/07/02 01:54:35;;;;;;;42.85;24.13;;;;;;;15.55;100.00;101372.50;5104864;27;20144;-76
2021/07/02 01:57:25;;;;;;;45.75;23.92;;;;;;;15.54;100.00;101375.31;5124631;27;20128;-83
2021/07/02 02:00:05;;;;;;;44.90;23.50;;;;;;;15.49;100.00;101367.88;5120627;27;20398;-78
2021/07/02 02:02:53;;;;;;;40.28;22.02;;;;;;;15.43;100.00;101378.28;5105952;27;20361;-76
2021/07/02 02:05:29;;;;;;;37.25;22.55;;;;;;;15.42;100.00;101390.66;5064345;28;20092;-77
2021/07/02 02:08:06;;;;;;;47.53;22.77;;;;;;;15.36;100.00;101375.44;5105845;27;20136;-80
2021/07/02 02:10:44;;;;;;;37.30;20.67;;;;;;;15.29;100.00;101366.50;5045670;28;20404;-78
2021/07/02 02:13:20;;;;;;;43.67;23.15;;;;;;;15.27;100.00;101384.34;5104528;27;20128;-79
2021/07/02 02:16:02;;;;;;;40.00;21.63;;;;;;;15.21;100.00;101385.81;5083107;28;20386;-79
2021/07/02 02:29:03;;;;;;;46.42;24.08;;;;;;;15.02;100.00;101386.91;5112985;27;1171137;-80
2021/07/02 02:31:41;;;;;;;41.83;23.92;;;;;;;15.05;100.00;101389.25;5086892;27;20411;-77
2021/07/02 02:34:25;;;;;;;51.72;24.55;;;;;;;15.08;100.00;101386.28;5079654;27;20382;-79
2021/07/02 02:37:02;;;;;;;47.92;26.45;;;;;;;15.03;100.00;101387.75;5106822;27;20129;-78
2021/07/02 02:39:39;;;;;;;47.80;26.75;;;;;;;15.02;100.00;101386.91;5080113;28;20388;-78
2021/07/02 02:42:16;;;;;;;50.55;27.90;;;;;;;14.98;100.00;101388.22;5099280;27;20133;-78
2021/07/02 02:44:53;;;;;;;49.65;26.42;;;;;;;14.96;100.00;101384.94;5056865;28;20131;-79
2021/07/02 02:47:29;;;;;;;53.72;27.08;;;;;;;14.90;100.00;101383.75;5027032;28;20499;-78
2021/07/02 02:50:07;;;;;;;52.22;27.50;;;;;;;14.87;100.00;101391.97;5066202;28;20060;-78
2021/07/02 02:52:44;;;;;;;58.85;26.92;;;;;;;14.86;100.00;101386.84;5084826;27;20378;-76
2021/07/02 02:55:22;;;;;;;46.25;25.50;;;;;;;14.82;100.00;101388.16;5098177;27;20383;-76
2021/07/02 02:57:59;;;;;;;53.75;27.80;;;;;;;14.75;100.00;101394.09;5073435;28;20146;-76
2021/07/02 03:00:36;;;;;;;42.08;25.30;;;;;;;14.70;100.00;101385.78;5106679;27;20135;-78
2021/07/02 03:03:12;;;;;;;45.28;26.90;;;;;;;14.76;100.00;101389.63;5106204;27;20132;-79
2021/07/02 03:05:49;;;;;;;42.30;26.13;;;;;;;14.68;100.00;101386.94;5089506;28;20138;-79
2021/07/02 03:08:25;;;;;;;49.25;27.20;;;;;;;14.68;100.00;101398.34;5060993;28;20134;-79
2021/07/02 03:11:05;;;;;;;44.10;26.58;;;;;;;14.63;100.00;101394.50;5067275;28;20881;-79
2021/07/02 03:13:42;;;;;;;48.50;26.88;;;;;;;14.69;100.00;101396.50;5059578;28;20126;-79
2021/07/02 03:16:20;;;;;;;46.35;26.92;;;;;;;14.65;100.00;101398.63;5083978;27;20383;-78
2021/07/02 03:18:58;;;;;;;52.42;28.63;;;;;;;14.68;100.00;101397.50;5085472;27;20366;-77
2021/07/02 03:21:35;;;;;;;44.88;26.52;;;;;;;14.68;100.00;101400.97;5105759;27;20581;-77
2021/07/02 03:24:13;;;;;;;52.63;28.58;;;;;;;14.70;100.00;101401.63;5105289;27;20829;-76
2021/07/02 03:26:49;;;;;;;45.85;26.63;;;;;;;14.66;100.00;101396.84;5105491;27;20121;-78
2021/07/02 03:29:26;;;;;;;54.40;29.27;;;;;;;14.67;100.00;101398.47;5068428;28;20130;-77
2021/07/02 03:32:07;;;;;;;46.70;27.95;;;;;;;14.73;100.00;101406.63;5104145;27;20408;-78
2021/07/02 03:34:47;;;;;;;53.10;28.20;;;;;;;14.73;100.00;101411.91;5046486;28;20384;-78
2021/07/02 03:37:27;;;;;;;57.60;28.58;;;;;;;14.70;100.00;101419.31;5066744;28;20876;-78
2021/07/02 03:40:08;;;;;;;56.92;29.08;;;;;;;14.72;100.00;101415.50;5041962;27;20366;-77
2021/07/02 03:42:45;;;;;;;50.40;28.27;;;;;;;14.68;100.00;101424.72;5117654;27;20380;-78
2021/07/02 03:45:23;;;;;;;51.30;28.50;;;;;;;14.75;100.00;101425.78;5088987;27;20897;-77
2021/07/02 03:48:00;;;;;;;59.90;27.98;;;;;;;14.74;100.00;101425.91;5099233;27;20137;-77
2021/07/02 03:50:38;;;;;;;49.97;27.35;;;;;;;14.75;100.00;101428.41;5066203;28;20407;-80
2021/07/02 03:53:15;;;;;;;49.30;28.10;;;;;;;14.73;100.00;101418.97;5065539;28;20141;-75
2021/07/02 03:55:50;;;;;;;51.58;27.83;;;;;;;14.81;100.00;101423.50;5112621;27;1173192;-79
2021/07/02 03:58:26;;;;;;;52.25;28.92;;;;;;;14.79;100.00;101423.66;5094165;27;20383;-78
2021/07/02 04:01:03;;;;;;;52.60;28.50;;;;;;;14.81;100.00;101421.66;5064015;28;20142;-78
2021/07/02 04:03:40;;;;;;;50.33;28.17;;;;;;;14.79;100.00;101416.53;5105540;27;20703;-77
2021/07/02 04:06:16;;;;;;;54.15;29.95;;;;;;;14.91;100.00;101427.66;5074657;28;20136;-77
2021/07/02 04:08:53;;;;;;;49.47;28.40;;;;;;;14.91;100.00;101432.94;5047571;28;20132;-79
2021/07/02 04:11:29;;;;;;;49.30;28.02;;;;;;;14.93;100.00;101438.06;5076749;27;20141;-75
2021/07/02 04:14:06;;;;;;;44.78;27.38;;;;;;;15.01;100.00;101439.91;5105844;27;20050;-76
2021/07/02 04:16:41;;;;;;;45.70;28.35;;;;;;;15.03;100.00;101438.78;5113457;27;1189739;-78
2021/07/02 04:19:18;;;;;;;42.58;25.13;;;;;;;15.02;100.00;101437.13;5080959;27;20387;-77
2021/07/02 04:21:54;;;;;;;45.33;25.95;;;;;;;15.02;100.00;101439.75;5103733;27;20129;-78
2021/07/02 04:24:31;;;;;;;47.35;25.50;;;;;;;15.03;100.00;101444.06;5066884;28;20601;-79
2021/07/02 04:27:48;;;;;;;45.45;27.15;;;;;;;15.12;100.00;101453.66;5067062;28;20351;-80
2021/07/02 04:30:24;;;;;;;45.33;24.63;;;;;;;15.11;100.00;101457.31;5114279;27;20133;-75
2021/07/02 04:33:01;;;;;;;47.05;24.85;;;;;;;15.16;100.00;101452.38;5100888;27;20618;-77
2021/07/02 04:35:38;;;;;;;39.30;23.52;;;;;;;15.09;100.00;101455.81;5115097;27;20136;-77
2021/07/02 04:38:14;;;;;;;40.80;23.48;;;;;;;15.06;100.00;101462.22;5106309;27;20136;-77
2021/07/02 04:40:51;;;;;;;38.38;23.15;;;;;;;14.98;100.00;101457.72;5077972;27;20150;-77
2021/07/02 04:43:26;;;;;;;41.67;24.70;;;;;;;15.07;100.00;101452.47;5107058;27;1179632;-77
2021/07/02 04:46:02;;;;;;;38.70;23.05;;;;;;;15.03;100.00;101452.00;5119317;27;20385;-77
2021/07/02 04:48:39;;;;;;;44.67;22.33;;;;;;;15.00;100.00;101454.94;5065274;27;20131;-80
2021/07/02 05:04:15;;;;;;;37.75;23.08;;;;;;;15.17;100.00;101461.94;6218951;23;20024;-78
2021/07/02 05:06:55;;;;;;;35.75;21.30;;;;;;;15.29;100.00;101466.94;5139835;27;20326;-76
2021/07/02 05:09:31;;;;;;;33.17;20.63;;;;;;;15.26;100.00;101468.09;5094308;27;20410;-75
2021/07/02 05:12:09;;;;;;;37.15;20.10;;;;;;;15.33;100.00;101478.84;5072120;28;20138;-77
2021/07/02 05:14:46;;;;;;;34.38;19.17;;;;;;;15.30;100.00;101468.59;5087473;27;20389;-75
2021/07/02 05:17:22;;;;;;;36.83;21.25;;;;;;;15.35;100.00;101479.50;5107883;27;20128;-76
2021/07/02 05:19:59;;;;;;;31.25;20.20;;;;;;;15.33;100.00;101477.06;5091777;28;20136;-80
2021/07/02 05:22:36;;;;;;;33.10;19.40;;;;;;;15.35;100.00;101488.28;5100040;27;20152;-78
2021/07/02 05:25:12;;;;;;;35.38;20.17;;;;;;;15.44;100.00;101483.03;5065817;28;20142;-76
2021/07/02 05:27:48;;;;;;;33.45;20.58;;;;;;;15.52;100.00;101488.31;5080970;27;20479;-76
2021/07/02 05:30:26;;;;;;;33.47;20.83;;;;;;;15.63;100.00;101488.03;5063117;28;20139;-76
2021/07/02 05:33:04;;;;;;;36.15;20.75;;;;;;;15.68;100.00;101491.00;5094192;27;20731;-76
2021/07/02 05:35:40;;;;;;;40.13;21.88;;;;;;;15.88;100.00;101485.44;5067338;28;20135;-78
2021/07/02 05:38:16;;;;;;;45.05;23.75;;;;;;;15.96;100.00;101483.66;5127113;27;20143;-76
2021/07/02 05:40:56;;;;;;;41.70;23.40;;;;;;;16.07;100.00;101482.50;5056484;28;20136;-79
2021/07/02 05:43:32;;;;;;;38.17;21.70;;;;;;;16.13;100.00;101489.78;5115642;27;1174699;-78
2021/07/02 05:46:08;;;;;;;39.85;21.13;;;;;;;16.17;100.00;101490.28;5065753;28;20407;-77
2021/07/02 05:48:44;;;;;;;38.45;20.60;;;;;;;16.27;100.00;101484.81;5134751;27;20138;-74
2021/07/02 05:51:21;;;;;;;34.15;20.88;;;;;;;16.30;100.00;101485.31;5066848;28;20134;-76
2021/07/02 05:53:58;;;;;;;36.10;21.38;;;;;;;16.25;100.00;101486.81;5078112;27;20138;-75
2021/07/02 05:56:35;;;;;;;35.70;22.13;;;;;;;16.25;100.00;101486.81;5106575;27;20136;-77
2021/07/02 05:59:11;;;;;;;30.33;19.77;;;;;;;16.33;100.00;101495.59;5093042;27;20137;-76
2021/07/02 06:01:47;;;;;;;32.63;19.88;;;;;;;16.38;100.00;101488.97;5107891;27;20869;-77
2021/07/02 06:04:24;;;;;;;31.67;19.33;;;;;;;16.33;100.00;101490.28;5068760;28;20138;-76
2021/07/02 06:07:01;;;;;;;32.17;19.40;;;;;;;16.33;100.00;101495.59;5118966;27;20141;-76
2021/07/02 06:09:38;;;;;;;31.20;20.45;;;;;;;16.37;100.00;101498.75;5107199;27;20129;-80
2021/07/02 06:12:12;;;;;;;30.93;20.93;;;;;;;16.36;100.00;101491.78;5114156;27;1177462;-79
2021/07/02 06:14:47;;;;;;;29.97;19.33;;;;;;;16.44;100.00;101499.69;5097660;27;1176898;-80
2021/07/02 06:17:24;;;;;;;26.80;17.83;;;;;;;16.27;100.00;101498.06;5065648;28;20391;-77
2021/07/02 06:20:00;;;;;;;28.75;19.25;;;;;;;16.35;100.00;101504.19;5043170;27;20135;-77
2021/07/02 06:22:37;;;;;;;29.38;18.77;;;;;;;16.55;100.00;101502.00;5026057;28;20638;-74
2021/07/02 06:25:14;;;;;;;33.20;17.83;;;;;;;16.59;100.00;101499.84;5066295;28;20139;-76
2021/07/02 06:27:50;;;;;;;30.30;16.90;;;;;;;16.59;100.00;101505.16;5101867;27;20125;-77
2021/07/02 06:30:27;;;;;;;23.90;15.48;;;;;;;16.45;96.57;101504.00;5159586;27;20158;-73
2021/07/02 06:33:03;;;;;;;28.63;16.80;;;;;;;16.46;100.00;101510.13;5086239;27;20142;-75
2021/07/02 06:35:40;;;;;;;32.05;17.77;;;;;;;16.31;100.00;101507.31;5102554;27;20499;-75
2021/07/02 06:38:17;;;;;;;33.90;20.23;;;;;;;16.21;100.00;101510.13;5088362;27;20080;-78
2021/07/02 06:40:53;;;;;;;27.75;17.60;;;;;;;16.31;100.00;101510.81;5102552;27;20130;-76
2021/07/02 06:43:31;;;;;;;29.45;18.15;;;;;;;16.27;100.00;101512.13;5087257;27;20137;-76
2021/07/02 06:46:07;;;;;;;29.17;18.65;;;;;;;16.31;100.00;101507.31;5109077;27;1189263;-78
2021/07/02 06:48:43;;;;;;;31.23;17.20;;;;;;;16.43;100.00;101513.13;5065455;28;20384;-78
2021/07/02 06:51:20;;;;;;;28.15;17.58;;;;;;;16.50;100.00;101514.94;5107218;27;20143;-75
2021/07/02 06:53:56;;;;;;;24.67;16.00;;;;;;;16.57;100.00;101514.28;5085739;27;20125;-76
2021/07/02 06:56:33;;;;;;;26.65;17.30;;;;;;;16.62;100.00;101519.91;5087612;27;20126;-75
2021/07/02 06:59:08;;;;;;;28.80;16.98;;;;;;;16.57;100.00;101509.78;5110898;27;1185152;-78
2021/07/02 07:01:43;;;;;;;27.02;16.15;;;;;;;16.61;100.00;101511.09;5113508;27;1185062;-77
2021/07/02 07:04:20;;;;;;;27.38;16.08;;;;;;;16.70;100.00;101510.09;5086006;28;20382;-79
2021/07/02 07:06:56;;;;;;;27.52;16.58;;;;;;;16.84;100.00;101508.63;5123753;27;20140;-77
2021/07/02 07:09:34;;;;;;;27.10;16.25;;;;;;;16.82;100.00;101509.75;5083710;28;20146;-76
2021/07/02 07:12:10;;;;;;;25.63;16.75;;;;;;;16.83;100.00;101511.44;5112334;27;1241783;-79
2021/07/02 07:14:47;;;;;;;23.55;16.10;;;;;;;16.96;100.00;101506.44;5045293;27;20400;-75
2021/07/02 07:17:24;;;;;;;26.25;16.60;;;;;;;17.03;99.96;101510.06;5099329;27;20399;-79
2021/07/02 07:19:59;;;;;;;23.65;16.50;;;;;;;17.00;97.46;101505.09;5092409;27;1187176;-79
2021/07/02 07:22:36;;;;;;;24.42;15.48;;;;;;;16.89;95.79;101505.47;5068984;28;20386;-77
2021/07/02 07:25:13;;;;;;;24.48;15.35;;;;;;;17.03;97.27;101517.22;5109873;27;20128;-77
2021/07/02 07:27:49;;;;;;;24.50;15.35;;;;;;;17.12;100.00;101508.19;5079235;27;20751;-79
2021/07/02 07:30:27;;;;;;;25.92;16.35;;;;;;;17.26;99.11;101506.69;5066834;28;20131;-80
2021/07/02 07:33:04;;;;;;;25.08;16.20;;;;;;;17.64;99.55;101507.66;5126155;27;20381;-78
2021/07/02 07:35:43;;;;;;;24.73;15.20;;;;;;;17.84;97.10;101513.38;5052107;28;20050;-77
2021/07/02 07:38:19;;;;;;;26.83;15.82;;;;;;;18.05;97.48;101504.75;5068149;28;20394;-79
2021/07/02 07:40:55;;;;;;;24.10;15.88;;;;;;;18.11;96.39;101507.72;5065008;28;20139;-78
2021/07/02 07:43:34;;;;;;;25.75;15.63;;;;;;;18.17;94.65;101510.47;5066805;28;20134;-78
2021/07/02 07:46:10;;;;;;;31.50;16.50;;;;;;;18.14;97.15;101507.34;5108143;27;20372;-77
2021/07/02 07:48:46;;;;;;;20.80;14.73;;;;;;;18.25;97.07;101498.97;5060255;28;20044;-78
2021/07/02 07:54:04;;;;;;;19.52;14.15;;;;;;;18.38;92.64;101507.16;5068355;28;20388;-78
2021/07/02 07:56:50;;;;;;;21.20;15.10;;;;;;;18.35;91.07;101501.41;5065799;28;20135;-78
2021/07/02 07:59:27;;;;;;;22.02;14.07;;;;;;;18.52;91.42;101502.88;5113123;27;20384;-79
2021/07/02 08:02:04;;;;;;;23.88;14.60;;;;;;;18.65;90.54;101508.41;5127859;27;20375;-78
2021/07/02 08:04:40;;;;;;;22.77;13.70;;;;;;;18.67;88.94;101518.84;5104350;27;20135;-77
2021/07/02 08:07:16;;;;;;;19.45;14.25;;;;;;;18.82;87.79;101516.25;5089908;27;1207558;-78
2021/07/02 08:09:52;;;;;;;19.73;13.73;;;;;;;18.66;90.26;101509.22;5067867;28;20379;-80
2021/07/02 08:12:29;;;;;;;21.40;13.55;;;;;;;18.49;91.16;101525.31;5066267;28;20131;-78
2021/07/02 08:15:08;;;;;;;18.08;12.82;;;;;;;18.41;88.96;101527.22;5087910;27;20615;-79
2021/07/02 08:17:45;;;;;;;20.95;13.60;;;;;;;18.65;92.05;101526.19;5128066;27;20374;-79
2021/07/02 08:20:20;;;;;;;22.70;13.07;;;;;;;18.71;86.13;101527.28;5085127;27;1184150;-80
2021/07/02 08:22:57;;;;;;;19.90;13.02;;;;;;;18.83;89.78;101517.88;5107693;27;21890;-76
2021/07/02 08:25:33;;;;;;;19.60;13.40;;;;;;;18.94;93.36;101524.59;5081020;28;20131;-79
2021/07/02 08:30:53;;;;;;;23.05;12.85;;;;;;;19.06;91.97;101529.28;5061041;28;20375;-77
2021/07/02 08:33:30;;;;;;;20.48;12.88;;;;;;;19.07;94.41;101516.81;5066140;28;20134;-76
2021/07/02 08:36:06;;;;;;;20.45;13.23;;;;;;;19.17;91.96;101520.00;5067902;28;20135;-80
2021/07/02 08:38:43;;;;;;;21.02;12.88;;;;;;;19.28;90.63;101532.00;5067049;28;20528;-77
2021/07/02 08:41:19;;;;;;;18.90;14.20;;;;;;;19.63;88.44;101529.56;5065388;28;20592;-80
2021/07/02 08:43:56;;;;;;;18.08;11.85;;;;;;;19.92;81.98;101530.53;5103321;27;20141;-78
2021/07/02 08:46:36;;;;;;;17.08;10.38;;;;;;;20.09;82.50;101531.91;5066622;28;20134;-80
2021/07/02 08:49:13;;;;;;;17.25;12.40;;;;;;;20.68;83.77;101529.97;5063989;28;20384;-78
2021/07/02 08:51:49;;;;;;;21.73;11.48;;;;;;;20.73;77.47;101530.22;5105186;27;20125;-80
2021/07/02 08:54:26;;;;;;;20.23;10.95;;;;;;;20.43;85.11;101538.38;5086316;27;20134;-76
2021/07/02 08:57:02;;;;;;;19.25;12.00;;;;;;;20.04;86.74;101531.66;5065550;28;20134;-77
2021/07/02 08:59:39;;;;;;;19.35;11.43;;;;;;;20.25;80.99;101536.19;5071874;28;20135;-81
2021/07/02 09:02:30;;;;;;;17.88;10.90;;;;;;;20.29;76.96;101528.63;5064280;28;20165;-79
2021/07/02 09:05:25;;;;;;;17.20;10.60;;;;;;;20.82;78.00;101539.72;5108840;27;1190527;-79
2021/07/02 09:08:12;;;;;;;16.80;11.88;;;;;;;20.92;78.96;101537.53;5086968;27;1224118;-80
2021/07/02 09:10:49;;;;;;;20.30;12.77;;;;;;;21.09;76.58;101542.53;5093734;27;20152;-77
2021/07/02 09:13:43;;;;;;;21.98;11.55;;;;;;;21.55;75.66;101541.97;5067852;28;20407;-79
2021/07/02 09:16:24;;;;;;;32.25;12.38;;;;;;;21.58;82.81;101539.72;5095093;27;1232363;-77
2021/07/02 09:19:19;;;;;;;20.00;12.45;;;;;;;21.13;80.08;101543.78;5065052;28;20757;-78
2021/07/02 09:22:16;;;;;;;31.13;13.65;;;;;;;21.31;76.32;101540.63;5067091;28;20371;-78
2021/07/02 09:24:54;;;;;;;22.25;13.10;;;;;;;21.60;76.08;101549.38;5145593;27;20415;-77
2021/07/02 09:27:37;;;;;;;23.40;12.07;;;;;;;21.82;72.91;101555.41;5089219;27;20386;-78
2021/07/02 09:30:28;;;;;;;17.33;11.55;;;;;;;21.98;75.85;101549.66;5100899;27;20910;-79
2021/07/02 09:33:14;;;;;;;23.33;12.13;;;;;;;22.17;74.23;101556.09;5108409;27;20369;-79
2021/07/02 09:35:59;;;;;;;15.75;9.63;;;;;;;22.25;71.76;101552.41;5098484;27;20914;-77
2021/07/02 09:38:40;;;;;;;18.70;10.65;;;;;;;21.73;68.12;101555.56;5114186;27;1209313;-78
2021/07/02 09:41:16;;;;;;;17.05;11.07;;;;;;;21.22;74.53;101563.94;5062649;28;20387;-77
2021/07/02 09:44:12;;;;;;;18.08;10.40;;;;;;;21.34;73.62;101558.88;5086436;27;20383;-77
2021/07/02 09:46:50;;;;;;;15.00;10.25;;;;;;;21.61;71.57;101548.38;5107699;27;20387;-76
2021/07/02 09:49:26;;;;;;;16.02;8.88;;;;;;;21.77;67.06;101547.97;5094214;28;20028;-76
2021/07/02 09:52:04;;;;;;;16.58;9.20;;;;;;;21.94;66.18;101549.28;5093138;28;20516;-76
2021/07/02 09:54:30;;;;;;;11.52;8.55;;;;;;;22.13;66.60;101541.47;5051457;28;20074;-76
2021/07/02 09:57:15;;;;;;;12.43;9.20;;;;;;;22.50;67.88;101544.63;5054541;28;20044;-76
2021/07/02 09:59:41;;;;;;;13.70;9.20;;;;;;;22.87;67.32;101547.69;5080040;28;20037;-78
2021/07/02 10:02:17;;;;;;;14.30;9.77;;;;;;;23.00;69.93;101553.00;5051228;28;20036;-77
2021/07/02 10:04:58;;;;;;;12.45;8.57;;;;;;;23.10;68.66;101547.22;5064824;28;20036;-77
2021/07/02 10:07:25;;;;;;;11.48;8.48;;;;;;;22.82;70.18;101560.84;5081506;28;20036;-76
2021/07/02 10:09:50;;;;;;;14.05;9.18;;;;;;;22.08;68.57;101557.31;5068715;28;20520;-76
2021/07/02 10:12:18;;;;;;;15.18;10.15;;;;;;;21.39;76.98;101559.94;5072603;28;20035;-78
2021/07/02 10:14:45;;;;;;;16.75;9.30;;;;;;;21.22;79.28;101560.47;5085254;28;20034;-76
2021/07/02 10:17:10;;;;;;;16.00;9.13;;;;;;;21.83;71.95;101562.38;5072203;28;20042;-77
2021/07/02 10:19:41;;;;;;;14.85;9.40;;;;;;;22.37;71.04;101552.63;5080287;28;20024;-78
2021/07/02 10:22:08;;;;;;;12.52;9.30;;;;;;;23.08;66.94;101552.78;5052079;28;20093;-77
2021/07/02 10:24:34;;;;;;;11.27;8.77;;;;;;;23.74;66.05;101561.59;5083906;28;20441;-79
2021/07/02 10:27:00;;;;;;;10.98;7.47;;;;;;;23.88;63.91;101555.16;5058399;28;20122;-76
2021/07/02 10:29:28;;;;;;;13.73;8.18;;;;;;;22.99;64.18;101567.38;5051017;28;20104;-76
2021/07/02 10:31:53;;;;;;;11.73;8.23;;;;;;;21.75;67.56;101558.88;5085187;28;20028;-79
2021/07/02 10:34:19;;;;;;;11.68;7.85;;;;;;;21.27;69.50;101561.53;5058556;28;20081;-79
2021/07/02 10:36:47;;;;;;;9.90;7.78;;;;;;;21.97;68.51;101566.75;5067716;28;20131;-77
2021/07/02 10:39:35;;;;;;;10.13;7.38;;;;;;;22.90;66.88;101569.44;5056224;28;20115;-78
2021/07/02 10:42:05;;;;;;;10.70;7.97;;;;;;;23.33;68.32;101570.81;5069748;28;20115;-79
2021/07/02 10:44:31;;;;;;;12.23;7.10;;;;;;;22.76;63.51;101567.84;5070419;28;20046;-78
2021/07/02 10:47:02;;;;;;;11.98;7.05;;;;;;;22.67;65.20;101572.56;5095852;28;20036;-79
2021/07/02 10:49:39;;;;;;;7.82;6.65;;;;;;;22.69;68.97;101575.84;5055882;28;20041;-77
2021/07/02 10:52:25;;;;;;;9.93;6.85;;;;;;;23.05;65.49;101573.78;5066814;28;20096;-75
2021/07/02 10:54:52;;;;;;;9.88;7.75;;;;;;;23.36;68.28;101562.38;5049399;28;20040;-78
2021/07/02 10:57:20;;;;;;;9.45;6.53;;;;;;;23.68;60.78;101557.91;5060929;28;20036;-78
2021/07/02 10:59:48;;;;;;;13.32;7.07;;;;;;;23.98;67.49;101565.41;5062014;28;20494;-79
2021/07/02 11:02:22;;;;;;;8.82;6.20;;;;;;;24.24;62.24;101556.38;5053987;28;20039;-77
2021/07/02 11:04:59;;;;;;;8.82;6.28;;;;;;;24.23;57.02;101554.72;5060032;28;20401;-77
2021/07/02 11:07:29;;;;;;;7.50;5.90;;;;;;;24.36;65.17;101556.47;5051446;28;20037;-77
2021/07/02 11:09:57;;;;;;;10.88;6.57;;;;;;;24.40;59.43;101557.66;5040713;28;20032;-79
2021/07/02 11:12:26;;;;;;;8.70;6.00;;;;;;;24.44;58.18;101552.69;5042940;28;20043;-76
2021/07/02 11:14:51;;;;;;;9.93;6.40;;;;;;;24.61;59.76;101553.81;5071978;28;20032;-77
2021/07/02 11:17:28;;;;;;;7.72;5.82;;;;;;;24.67;62.60;101554.78;5046366;28;20051;-79
2021/07/02 11:20:12;;;;;;;10.00;6.22;;;;;;;23.82;61.72;101556.00;5053769;28;20047;-77
2021/07/02 11:22:41;;;;;;;7.70;6.13;;;;;;;23.82;64.29;101556.00;5056175;28;20119;-76
2021/07/02 11:25:44;;;;;;;8.75;5.80;;;;;;;23.39;63.84;101553.91;5069823;28;20659;-79
2021/07/02 11:28:14;;;;;;;8.95;5.47;;;;;;;23.92;59.76;101542.13;5059571;28;20040;-78
2021/07/02 11:30:42;;;;;;;9.25;6.28;;;;;;;24.08;62.81;101546.97;5053620;28;20524;-78
2021/07/02 11:33:07;;;;;;;10.18;5.45;;;;;;;24.25;59.36;101543.78;5038479;28;20073;-78
2021/07/02 11:35:34;;;;;;;8.60;5.28;;;;;;;24.59;58.08;101560.44;5037752;28;20194;-77
2021/07/02 11:38:14;;;;;;;10.00;5.35;;;;;;;24.90;59.67;101553.31;5038190;28;20441;-77
2021/07/02 11:40:50;;;;;;;7.78;5.88;;;;;;;24.94;55.93;101555.34;5070624;28;20044;-77
2021/07/02 11:43:18;;;;;;;6.35;5.15;;;;;;;25.04;57.04;101552.16;5071313;28;20067;-79
2021/07/02 11:45:52;;;;;;;9.32;5.00;;;;;;;25.08;57.52;101553.34;5049184;28;20029;-76
2021/07/02 11:48:21;;;;;;;8.18;5.65;;;;;;;24.90;55.12;101564.88;5043144;28;20035;-79
2021/07/02 11:50:51;;;;;;;8.32;5.18;;;;;;;24.99;54.41;101566.22;5045802;28;20517;-77
2021/07/02 11:53:39;;;;;;;9.10;4.80;;;;;;;25.06;53.84;101561.59;5067769;28;20119;-76
2021/07/02 11:56:05;;;;;;;7.40;5.22;;;;;;;24.78;55.77;101564.78;5039536;28;20059;-77
2021/07/02 11:58:48;;;;;;;8.90;5.10;;;;;;;24.17;58.71;101560.13;5051811;28;20068;-79
2021/07/02 12:01:22;;;;;;;8.43;5.45;;;;;;;23.48;56.50;101560.69;5056121;28;20024;-78
2021/07/02 12:03:54;;;;;;;6.75;5.40;;;;;;;23.57;64.17;101561.25;5069421;28;20032;-79
2021/07/02 12:06:25;;;;;;;6.72;4.70;;;;;;;24.13;57.60;101556.22;5072669;28;20032;-77
2021/07/02 12:08:53;;;;;;;7.22;5.35;;;;;;;23.49;60.43;101556.16;5044409;28;20498;-77
2021/07/02 12:11:45;;;;;;;10.07;5.20;;;;;;;22.79;64.02;101540.66;5071810;28;20031;-78
2021/07/02 12:14:12;;;;;;;7.93;4.90;;;;;;;22.88;62.71;101555.47;5051242;28;20036;-79
2021/07/02 12:16:40;;;;;;;10.90;5.68;;;;;;;23.36;61.14;101549.00;5055602;28;20094;-79
2021/07/02 12:19:15;;;;;;;9.20;5.22;;;;;;;24.07;57.73;101550.72;5055428;28;20051;-78
2021/07/02 12:21:53;;;;;;;9.02;5.40;;;;;;;24.70;57.07;101553.53;5038919;28;20036;-78
2021/07/02 12:24:22;;;;;;;5.20;4.28;;;;;;;24.31;55.89;101556.28;5055315;28;20025;-78
2021/07/02 12:26:53;;;;;;;6.28;4.90;;;;;;;23.57;61.66;101552.41;5039238;28;20031;-79
2021/07/02 12:29:19;;;;;;;5.90;4.90;;;;;;;23.25;61.80;101555.00;5054958;28;20086;-80
2021/07/02 12:31:50;;;;;;;8.88;5.18;;;;;;;23.57;60.42;101557.78;5049957;28;20575;-77
2021/07/02 12:34:23;;;;;;;8.55;5.03;;;;;;;24.00;61.05;101557.16;5034592;28;20033;-78
2021/07/02 12:36:58;;;;;;;9.65;4.65;;;;;;;24.62;58.93;101557.28;5071190;28;20409;-78
2021/07/02 12:39:53;;;;;;;8.57;4.78;;;;;;;24.58;57.39;101562.31;5055553;28;20417;-79